Terminal Aerodrome Forecast
Issued by NWS Quad Cities IA IL

Home | Current Version | Previous Version | Text Only | Print | Product List | Glossary On
Versions: 1 2 3 4 5 6 7 8 9 10 11 12 13 14 15 16 17 18 19 20 21 22
000
FTUS43 KDVN 250201 AAA
TAFDBQ
TAF AMD
KDBQ 250201Z 2502/2524 12008KT 5SM BR SCT150
     FM250600 12008KT 2SM BR BKN007
     FM250900 14007KT 1SM BR VCSH OVC003
     FM251300 17009KT 3SM BR OVC006 PROB30 2517/2520 4SM SHRA BR
      OVC025=

USA.gov is the U.S. government's official web portal to all federal, state and local government web resources and services.